sensor_id;sensor_type;location;lat;lon;timestamp;P1;durP1;ratioP1;P2;durP2;ratioP2
54743;SDS011;40639;53.170;6.728;2023-08-30T00:00:54;13.82;;;10.10;;
54743;SDS011;40639;53.170;6.728;2023-08-30T00:03:20;13.10;;;10.38;;
54743;SDS011;40639;53.170;6.728;2023-08-30T00:05:46;15.68;;;11.77;;
54743;SDS011;40639;53.170;6.728;2023-08-30T00:08:13;13.07;;;10.50;;
54743;SDS011;40639;53.170;6.728;2023-08-30T00:10:43;16.38;;;10.98;;
54743;SDS011;40639;53.170;6.728;2023-08-30T00:13:09;16.10;;;11.63;;
54743;SDS011;40639;53.170;6.728;2023-08-30T00:15:35;13.23;;;10.65;;
54743;SDS011;40639;53.170;6.728;2023-08-30T00:18:01;13.27;;;10.38;;
54743;SDS011;40639;53.170;6.728;2023-08-30T00:20:28;14.10;;;11.63;;
54743;SDS011;40639;53.170;6.728;2023-08-30T00:22:54;13.43;;;10.32;;
54743;SDS011;40639;53.170;6.728;2023-08-30T00:25:20;13.90;;;11.23;;
54743;SDS011;40639;53.170;6.728;2023-08-30T00:27:46;15.00;;;11.15;;
54743;SDS011;40639;53.170;6.728;2023-08-30T00:30:12;14.65;;;10.98;;
54743;SDS011;40639;53.170;6.728;2023-08-30T00:32:38;15.02;;;11.73;;
54743;SDS011;40639;53.170;6.728;2023-08-30T00:35:04;13.90;;;10.85;;
54743;SDS011;40639;53.170;6.728;2023-08-30T00:37:31;14.55;;;10.93;;
54743;SDS011;40639;53.170;6.728;2023-08-30T00:39:57;14.80;;;10.90;;
54743;SDS011;40639;53.170;6.728;2023-08-30T00:42:24;14.68;;;10.85;;
54743;SDS011;40639;53.170;6.728;2023-08-30T00:44:51;14.18;;;10.32;;
54743;SDS011;40639;53.170;6.728;2023-08-30T00:47:17;17.05;;;11.48;;
54743;SDS011;40639;53.170;6.728;2023-08-30T00:49:43;15.25;;;10.95;;
54743;SDS011;40639;53.170;6.728;2023-08-30T00:52:10;14.75;;;11.00;;
54743;SDS011;40639;53.170;6.728;2023-08-30T00:54:36;14.30;;;10.95;;
54743;SDS011;40639;53.170;6.728;2023-08-30T00:57:03;15.55;;;10.88;;
54743;SDS011;40639;53.170;6.728;2023-08-30T00:59:30;14.52;;;11.02;;
54743;SDS011;40639;53.170;6.728;2023-08-30T01:01:57;14.02;;;10.32;;
54743;SDS011;40639;53.170;6.728;2023-08-30T01:04:24;15.95;;;10.68;;
54743;SDS011;40639;53.170;6.728;2023-08-30T01:06:50;14.23;;;9.25;;
54743;SDS011;40639;53.170;6.728;2023-08-30T01:09:17;12.93;;;9.75;;
54743;SDS011;40639;53.170;6.728;2023-08-30T01:11:45;16.98;;;10.15;;
54743;SDS011;40639;53.170;6.728;2023-08-30T01:14:32;13.45;;;8.95;;
54743;SDS011;40639;53.170;6.728;2023-08-30T01:17:00;13.60;;;10.70;;
54743;SDS011;40639;53.170;6.728;2023-08-30T01:19:41;14.73;;;9.60;;
54743;SDS011;40639;53.170;6.728;2023-08-30T01:22:19;14.68;;;9.35;;
54743;SDS011;40639;53.170;6.728;2023-08-30T01:27:19;12.35;;;9.10;;
54743;SDS011;40639;53.170;6.728;2023-08-30T01:29:46;13.15;;;9.50;;
54743;SDS011;40639;53.170;6.728;2023-08-30T01:32:13;12.38;;;8.75;;
54743;SDS011;40639;53.170;6.728;2023-08-30T01:34:40;11.50;;;8.70;;
54743;SDS011;40639;53.170;6.728;2023-08-30T01:37:07;10.75;;;7.97;;
54743;SDS011;40639;53.170;6.728;2023-08-30T01:39:36;12.40;;;9.02;;
54743;SDS011;40639;53.170;6.728;2023-08-30T01:42:02;12.35;;;8.27;;
54743;SDS011;40639;53.170;6.728;2023-08-30T01:44:30;12.50;;;8.77;;
54743;SDS011;40639;53.170;6.728;2023-08-30T01:46:56;13.10;;;9.05;;
54743;SDS011;40639;53.170;6.728;2023-08-30T01:49:23;11.55;;;8.63;;
54743;SDS011;40639;53.170;6.728;2023-08-30T01:51:50;11.52;;;8.73;;
54743;SDS011;40639;53.170;6.728;2023-08-30T01:54:17;13.13;;;8.90;;
54743;SDS011;40639;53.170;6.728;2023-08-30T01:56:44;13.93;;;9.27;;
54743;SDS011;40639;53.170;6.728;2023-08-30T01:59:11;12.45;;;8.75;;
54743;SDS011;40639;53.170;6.728;2023-08-30T02:01:37;12.55;;;8.98;;
54743;SDS011;40639;53.170;6.728;2023-08-30T02:04:03;13.40;;;9.50;;
54743;SDS011;40639;53.170;6.728;2023-08-30T02:06:32;12.40;;;8.93;;
54743;SDS011;40639;53.170;6.728;2023-08-30T02:09:01;12.45;;;8.68;;
54743;SDS011;40639;53.170;6.728;2023-08-30T02:11:28;13.77;;;9.68;;
54743;SDS011;40639;53.170;6.728;2023-08-30T02:13:56;12.60;;;8.82;;
54743;SDS011;40639;53.170;6.728;2023-08-30T02:16:23;12.48;;;9.20;;
54743;SDS011;40639;53.170;6.728;2023-08-30T02:18:51;14.30;;;8.98;;
54743;SDS011;40639;53.170;6.728;2023-08-30T02:21:18;12.27;;;9.13;;
54743;SDS011;40639;53.170;6.728;2023-08-30T02:23:44;11.38;;;7.88;;
54743;SDS011;40639;53.170;6.728;2023-08-30T02:26:14;12.43;;;8.77;;
54743;SDS011;40639;53.170;6.728;2023-08-30T02:28:40;11.63;;;8.25;;
54743;SDS011;40639;53.170;6.728;2023-08-30T02:31:07;12.80;;;8.80;;
54743;SDS011;40639;53.170;6.728;2023-08-30T02:33:33;13.02;;;9.20;;
54743;SDS011;40639;53.170;6.728;2023-08-30T02:35:59;15.23;;;8.77;;
54743;SDS011;40639;53.170;6.728;2023-08-30T02:38:25;13.30;;;8.10;;
54743;SDS011;40639;53.170;6.728;2023-08-30T02:40:51;13.52;;;8.30;;
54743;SDS011;40639;53.170;6.728;2023-08-30T02:43:17;11.50;;;8.65;;
54743;SDS011;40639;53.170;6.728;2023-08-30T02:45:43;13.30;;;8.95;;
54743;SDS011;40639;53.170;6.728;2023-08-30T02:48:09;12.93;;;9.52;;
54743;SDS011;40639;53.170;6.728;2023-08-30T02:50:35;14.13;;;9.07;;
54743;SDS011;40639;53.170;6.728;2023-08-30T02:53:01;12.48;;;8.18;;
54743;SDS011;40639;53.170;6.728;2023-08-30T02:55:30;12.43;;;8.57;;
54743;SDS011;40639;53.170;6.728;2023-08-30T02:57:56;11.27;;;8.10;;
54743;SDS011;40639;53.170;6.728;2023-08-30T03:00:22;13.75;;;8.02;;
54743;SDS011;40639;53.170;6.728;2023-08-30T03:02:48;10.95;;;7.65;;
54743;SDS011;40639;53.170;6.728;2023-08-30T03:05:14;10.98;;;7.80;;
54743;SDS011;40639;53.170;6.728;2023-08-30T03:07:40;11.15;;;8.48;;
54743;SDS011;40639;53.170;6.728;2023-08-30T03:10:07;11.00;;;7.57;;
54743;SDS011;40639;53.170;6.728;2023-08-30T03:12:33;14.60;;;8.85;;
54743;SDS011;40639;53.170;6.728;2023-08-30T03:14:59;11.43;;;8.07;;
54743;SDS011;40639;53.170;6.728;2023-08-30T03:17:25;11.90;;;8.15;;
54743;SDS011;40639;53.170;6.728;2023-08-30T03:19:52;9.88;;;7.30;;
54743;SDS011;40639;53.170;6.728;2023-08-30T03:22:21;13.32;;;8.20;;
54743;SDS011;40639;53.170;6.728;2023-08-30T03:24:47;11.35;;;8.27;;
54743;SDS011;40639;53.170;6.728;2023-08-30T03:27:14;13.40;;;8.38;;
54743;SDS011;40639;53.170;6.728;2023-08-30T03:29:40;13.65;;;8.75;;
54743;SDS011;40639;53.170;6.728;2023-08-30T03:32:06;13.75;;;9.45;;
54743;SDS011;40639;53.170;6.728;2023-08-30T03:34:32;13.82;;;9.65;;
54743;SDS011;40639;53.170;6.728;2023-08-30T03:36:59;12.15;;;9.40;;
54743;SDS011;40639;53.170;6.728;2023-08-30T03:39:25;13.23;;;9.50;;
54743;SDS011;40639;53.170;6.728;2023-08-30T03:41:51;16.13;;;9.75;;
54743;SDS011;40639;53.170;6.728;2023-08-30T03:44:17;14.43;;;9.48;;
54743;SDS011;40639;53.170;6.728;2023-08-30T03:46:43;13.65;;;9.15;;
54743;SDS011;40639;53.170;6.728;2023-08-30T03:49:09;13.50;;;9.93;;
54743;SDS011;40639;53.170;6.728;2023-08-30T03:51:35;13.88;;;9.32;;
54743;SDS011;40639;53.170;6.728;2023-08-30T03:54:01;15.20;;;9.98;;
54743;SDS011;40639;53.170;6.728;2023-08-30T03:56:27;13.05;;;8.88;;
54743;SDS011;40639;53.170;6.728;2023-08-30T03:58:53;14.07;;;9.00;;
54743;SDS011;40639;53.170;6.728;2023-08-30T04:01:19;13.63;;;8.88;;
54743;SDS011;40639;53.170;6.728;2023-08-30T04:03:45;13.93;;;8.93;;
54743;SDS011;40639;53.170;6.728;2023-08-30T04:06:11;13.35;;;9.18;;
54743;SDS011;40639;53.170;6.728;2023-08-30T04:08:38;13.07;;;8.60;;
54743;SDS011;40639;53.170;6.728;2023-08-30T04:11:04;17.33;;;9.27;;
54743;SDS011;40639;53.170;6.728;2023-08-30T04:13:30;11.88;;;8.57;;
54743;SDS011;40639;53.170;6.728;2023-08-30T04:15:56;12.35;;;8.45;;
54743;SDS011;40639;53.170;6.728;2023-08-30T04:18:23;13.73;;;9.13;;
54743;SDS011;40639;53.170;6.728;2023-08-30T04:20:49;13.95;;;9.90;;
54743;SDS011;40639;53.170;6.728;2023-08-30T04:23:16;13.10;;;8.77;;
54743;SDS011;40639;53.170;6.728;2023-08-30T04:25:43;13.88;;;9.32;;
54743;SDS011;40639;53.170;6.728;2023-08-30T04:28:10;12.18;;;8.32;;
54743;SDS011;40639;53.170;6.728;2023-08-30T04:30:36;13.02;;;9.18;;
54743;SDS011;40639;53.170;6.728;2023-08-30T04:33:04;13.55;;;9.20;;
54743;SDS011;40639;53.170;6.728;2023-08-30T04:35:30;15.63;;;10.15;;
54743;SDS011;40639;53.170;6.728;2023-08-30T04:38:00;13.50;;;9.38;;
54743;SDS011;40639;53.170;6.728;2023-08-30T04:40:27;13.38;;;9.50;;
54743;SDS011;40639;53.170;6.728;2023-08-30T04:42:54;13.48;;;9.35;;
54743;SDS011;40639;53.170;6.728;2023-08-30T04:45:20;11.70;;;8.57;;
54743;SDS011;40639;53.170;6.728;2023-08-30T04:47:46;13.70;;;8.98;;
54743;SDS011;40639;53.170;6.728;2023-08-30T04:50:13;14.40;;;10.05;;
54743;SDS011;40639;53.170;6.728;2023-08-30T04:52:39;15.85;;;10.05;;
54743;SDS011;40639;53.170;6.728;2023-08-30T04:55:05;12.77;;;8.77;;
54743;SDS011;40639;53.170;6.728;2023-08-30T04:57:31;14.98;;;8.77;;
54743;SDS011;40639;53.170;6.728;2023-08-30T04:59:58;14.93;;;9.43;;
54743;SDS011;40639;53.170;6.728;2023-08-30T05:02:24;15.57;;;9.10;;
54743;SDS011;40639;53.170;6.728;2023-08-30T05:04:50;13.73;;;9.85;;
54743;SDS011;40639;53.170;6.728;2023-08-30T05:07:17;13.48;;;9.32;;
54743;SDS011;40639;53.170;6.728;2023-08-30T05:09:43;18.65;;;10.25;;
54743;SDS011;40639;53.170;6.728;2023-08-30T05:12:09;13.13;;;9.90;;
54743;SDS011;40639;53.170;6.728;2023-08-30T05:14:36;13.95;;;9.60;;
54743;SDS011;40639;53.170;6.728;2023-08-30T05:17:02;15.98;;;9.68;;
54743;SDS011;40639;53.170;6.728;2023-08-30T05:19:28;46.30;;;14.38;;
54743;SDS011;40639;53.170;6.728;2023-08-30T05:21:54;19.30;;;10.40;;
54743;SDS011;40639;53.170;6.728;2023-08-30T05:24:21;14.02;;;9.13;;
54743;SDS011;40639;53.170;6.728;2023-08-30T05:26:47;14.45;;;9.27;;
54743;SDS011;40639;53.170;6.728;2023-08-30T05:29:14;14.93;;;9.65;;
54743;SDS011;40639;53.170;6.728;2023-08-30T05:31:40;14.32;;;9.90;;
54743;SDS011;40639;53.170;6.728;2023-08-30T05:34:06;14.38;;;9.82;;
54743;SDS011;40639;53.170;6.728;2023-08-30T05:36:32;19.15;;;10.73;;
54743;SDS011;40639;53.170;6.728;2023-08-30T05:38:59;16.05;;;8.63;;
54743;SDS011;40639;53.170;6.728;2023-08-30T05:41:25;13.13;;;9.05;;
54743;SDS011;40639;53.170;6.728;2023-08-30T05:43:51;13.65;;;9.63;;
54743;SDS011;40639;53.170;6.728;2023-08-30T05:46:17;14.40;;;9.23;;
54743;SDS011;40639;53.170;6.728;2023-08-30T05:48:43;15.43;;;9.48;;
54743;SDS011;40639;53.170;6.728;2023-08-30T05:51:09;13.57;;;9.40;;
54743;SDS011;40639;53.170;6.728;2023-08-30T05:53:35;13.70;;;9.27;;
54743;SDS011;40639;53.170;6.728;2023-08-30T05:56:02;13.43;;;9.18;;
54743;SDS011;40639;53.170;6.728;2023-08-30T05:58:28;14.88;;;9.27;;
54743;SDS011;40639;53.170;6.728;2023-08-30T06:00:55;16.65;;;9.32;;
54743;SDS011;40639;53.170;6.728;2023-08-30T06:03:21;13.82;;;9.40;;
54743;SDS011;40639;53.170;6.728;2023-08-30T06:05:47;13.30;;;8.80;;
54743;SDS011;40639;53.170;6.728;2023-08-30T06:08:14;13.68;;;9.27;;
54743;SDS011;40639;53.170;6.728;2023-08-30T06:10:40;14.73;;;9.20;;
54743;SDS011;40639;53.170;6.728;2023-08-30T06:13:06;15.82;;;9.93;;
54743;SDS011;40639;53.170;6.728;2023-08-30T06:15:32;11.07;;;8.43;;
54743;SDS011;40639;53.170;6.728;2023-08-30T06:17:58;15.07;;;9.45;;
54743;SDS011;40639;53.170;6.728;2023-08-30T06:20:24;14.38;;;8.82;;
54743;SDS011;40639;53.170;6.728;2023-08-30T06:22:50;13.45;;;9.27;;
54743;SDS011;40639;53.170;6.728;2023-08-30T06:25:17;12.43;;;8.07;;
54743;SDS011;40639;53.170;6.728;2023-08-30T06:27:43;11.82;;;8.02;;
54743;SDS011;40639;53.170;6.728;2023-08-30T06:30:20;13.80;;;7.90;;
54743;SDS011;40639;53.170;6.728;2023-08-30T06:32:47;12.77;;;7.95;;
54743;SDS011;40639;53.170;6.728;2023-08-30T06:35:14;12.25;;;8.05;;
54743;SDS011;40639;53.170;6.728;2023-08-30T06:37:40;12.68;;;8.43;;
54743;SDS011;40639;53.170;6.728;2023-08-30T06:40:07;11.40;;;7.75;;
54743;SDS011;40639;53.170;6.728;2023-08-30T06:42:33;12.20;;;8.15;;
54743;SDS011;40639;53.170;6.728;2023-08-30T06:44:59;15.40;;;8.32;;
54743;SDS011;40639;53.170;6.728;2023-08-30T06:47:25;11.68;;;7.35;;
54743;SDS011;40639;53.170;6.728;2023-08-30T06:49:51;12.90;;;7.32;;
54743;SDS011;40639;53.170;6.728;2023-08-30T06:52:17;13.70;;;8.13;;
54743;SDS011;40639;53.170;6.728;2023-08-30T06:54:43;11.55;;;6.90;;
54743;SDS011;40639;53.170;6.728;2023-08-30T06:57:10;10.82;;;7.05;;
54743;SDS011;40639;53.170;6.728;2023-08-30T06:59:36;10.43;;;7.15;;
54743;SDS011;40639;53.170;6.728;2023-08-30T07:02:02;11.40;;;7.30;;
54743;SDS011;40639;53.170;6.728;2023-08-30T07:04:29;13.43;;;7.00;;
54743;SDS011;40639;53.170;6.728;2023-08-30T07:06:55;12.10;;;7.05;;
54743;SDS011;40639;53.170;6.728;2023-08-30T07:09:21;10.15;;;7.07;;
54743;SDS011;40639;53.170;6.728;2023-08-30T07:11:53;10.40;;;6.95;;
54743;SDS011;40639;53.170;6.728;2023-08-30T07:14:19;11.30;;;7.40;;
54743;SDS011;40639;53.170;6.728;2023-08-30T07:16:46;10.35;;;6.45;;
54743;SDS011;40639;53.170;6.728;2023-08-30T07:19:14;11.80;;;7.20;;
54743;SDS011;40639;53.170;6.728;2023-08-30T07:21:41;11.68;;;6.95;;
54743;SDS011;40639;53.170;6.728;2023-08-30T07:24:07;11.48;;;7.15;;
54743;SDS011;40639;53.170;6.728;2023-08-30T07:26:34;12.10;;;6.40;;
54743;SDS011;40639;53.170;6.728;2023-08-30T07:29:00;13.02;;;7.43;;
54743;SDS011;40639;53.170;6.728;2023-08-30T07:31:27;11.50;;;7.63;;
54743;SDS011;40639;53.170;6.728;2023-08-30T07:33:53;10.45;;;6.95;;
54743;SDS011;40639;53.170;6.728;2023-08-30T07:36:19;12.93;;;6.65;;
54743;SDS011;40639;53.170;6.728;2023-08-30T07:38:45;10.82;;;7.05;;
54743;SDS011;40639;53.170;6.728;2023-08-30T07:41:11;12.23;;;7.68;;
54743;SDS011;40639;53.170;6.728;2023-08-30T07:43:37;10.93;;;6.97;;
54743;SDS011;40639;53.170;6.728;2023-08-30T07:46:04;10.32;;;6.90;;
54743;SDS011;40639;53.170;6.728;2023-08-30T07:48:30;11.20;;;6.57;;
54743;SDS011;40639;53.170;6.728;2023-08-30T07:50:56;10.95;;;7.32;;
54743;SDS011;40639;53.170;6.728;2023-08-30T07:53:22;13.18;;;7.65;;
54743;SDS011;40639;53.170;6.728;2023-08-30T07:55:48;9.70;;;6.80;;
54743;SDS011;40639;53.170;6.728;2023-08-30T07:58:15;11.23;;;6.95;;
54743;SDS011;40639;53.170;6.728;2023-08-30T08:00:41;12.82;;;7.55;;
54743;SDS011;40639;53.170;6.728;2023-08-30T08:03:07;12.68;;;7.85;;
54743;SDS011;40639;53.170;6.728;2023-08-30T08:05:35;11.15;;;6.63;;
54743;SDS011;40639;53.170;6.728;2023-08-30T08:08:02;10.75;;;6.82;;
54743;SDS011;40639;53.170;6.728;2023-08-30T08:10:37;11.02;;;7.47;;
54743;SDS011;40639;53.170;6.728;2023-08-30T08:13:03;11.43;;;7.07;;
54743;SDS011;40639;53.170;6.728;2023-08-30T08:15:29;13.38;;;7.35;;
54743;SDS011;40639;53.170;6.728;2023-08-30T08:17:56;11.02;;;7.10;;
54743;SDS011;40639;53.170;6.728;2023-08-30T08:20:22;10.55;;;6.35;;
54743;SDS011;40639;53.170;6.728;2023-08-30T08:22:48;10.77;;;6.60;;
54743;SDS011;40639;53.170;6.728;2023-08-30T08:25:14;9.98;;;6.10;;
54743;SDS011;40639;53.170;6.728;2023-08-30T08:27:41;11.60;;;6.45;;
54743;SDS011;40639;53.170;6.728;2023-08-30T08:30:07;12.55;;;7.20;;
54743;SDS011;40639;53.170;6.728;2023-08-30T08:32:35;13.52;;;7.13;;
54743;SDS011;40639;53.170;6.728;2023-08-30T08:35:01;12.05;;;6.78;;
54743;SDS011;40639;53.170;6.728;2023-08-30T08:37:28;10.85;;;6.80;;
54743;SDS011;40639;53.170;6.728;2023-08-30T08:39:54;11.57;;;6.78;;
54743;SDS011;40639;53.170;6.728;2023-08-30T08:42:20;12.65;;;7.10;;
54743;SDS011;40639;53.170;6.728;2023-08-30T08:44:46;10.82;;;7.60;;
54743;SDS011;40639;53.170;6.728;2023-08-30T08:47:16;12.75;;;7.38;;
54743;SDS011;40639;53.170;6.728;2023-08-30T08:49:42;12.50;;;7.38;;
54743;SDS011;40639;53.170;6.728;2023-08-30T08:52:09;12.60;;;7.18;;
54743;SDS011;40639;53.170;6.728;2023-08-30T08:54:36;11.75;;;6.88;;
54743;SDS011;40639;53.170;6.728;2023-08-30T08:57:02;11.38;;;7.07;;
54743;SDS011;40639;53.170;6.728;2023-08-30T08:59:29;13.57;;;6.93;;
54743;SDS011;40639;53.170;6.728;2023-08-30T09:01:55;11.35;;;6.38;;
54743;SDS011;40639;53.170;6.728;2023-08-30T09:04:22;11.07;;;6.78;;
54743;SDS011;40639;53.170;6.728;2023-08-30T09:06:50;9.57;;;6.20;;
54743;SDS011;40639;53.170;6.728;2023-08-30T09:09:16;10.98;;;6.13;;
54743;SDS011;40639;53.170;6.728;2023-08-30T09:11:42;10.98;;;6.35;;
54743;SDS011;40639;53.170;6.728;2023-08-30T09:14:08;12.18;;;6.82;;
54743;SDS011;40639;53.170;6.728;2023-08-30T09:16:36;9.75;;;6.43;;
54743;SDS011;40639;53.170;6.728;2023-08-30T09:19:02;11.70;;;6.00;;
54743;SDS011;40639;53.170;6.728;2023-08-30T09:21:29;12.57;;;6.45;;
54743;SDS011;40639;53.170;6.728;2023-08-30T09:24:02;10.70;;;5.78;;
54743;SDS011;40639;53.170;6.728;2023-08-30T09:26:29;11.57;;;6.53;;
54743;SDS011;40639;53.170;6.728;2023-08-30T09:29:05;9.75;;;6.20;;
54743;SDS011;40639;53.170;6.728;2023-08-30T09:31:34;10.52;;;5.70;;
54743;SDS011;40639;53.170;6.728;2023-08-30T09:34:01;8.20;;;5.53;;
54743;SDS011;40639;53.170;6.728;2023-08-30T09:36:34;9.05;;;5.78;;
54743;SDS011;40639;53.170;6.728;2023-08-30T09:39:10;10.77;;;5.95;;
54743;SDS011;40639;53.170;6.728;2023-08-30T09:41:40;12.00;;;6.10;;
54743;SDS011;40639;53.170;6.728;2023-08-30T09:44:16;10.82;;;5.82;;
54743;SDS011;40639;53.170;6.728;2023-08-30T09:49:09;9.15;;;5.15;;
54743;SDS011;40639;53.170;6.728;2023-08-30T09:51:35;8.88;;;5.68;;
54743;SDS011;40639;53.170;6.728;2023-08-30T09:54:06;11.38;;;6.38;;
54743;SDS011;40639;53.170;6.728;2023-08-30T09:56:32;9.98;;;6.20;;
54743;SDS011;40639;53.170;6.728;2023-08-30T09:58:59;9.10;;;5.72;;
54743;SDS011;40639;53.170;6.728;2023-08-30T10:01:28;10.07;;;6.50;;
54743;SDS011;40639;53.170;6.728;2023-08-30T10:03:55;11.18;;;6.72;;
54743;SDS011;40639;53.170;6.728;2023-08-30T10:06:23;13.10;;;7.00;;
54743;SDS011;40639;53.170;6.728;2023-08-30T10:08:49;12.23;;;6.25;;
54743;SDS011;40639;53.170;6.728;2023-08-30T10:11:17;14.52;;;7.20;;
54743;SDS011;40639;53.170;6.728;2023-08-30T10:13:44;13.05;;;6.50;;
54743;SDS011;40639;53.170;6.728;2023-08-30T10:16:11;8.93;;;5.53;;
54743;SDS011;40639;53.170;6.728;2023-08-30T10:18:38;9.65;;;6.22;;
54743;SDS011;40639;53.170;6.728;2023-08-30T10:21:05;10.13;;;6.30;;
54743;SDS011;40639;53.170;6.728;2023-08-30T10:23:33;10.05;;;6.03;;
54743;SDS011;40639;53.170;6.728;2023-08-30T10:26:01;10.77;;;6.03;;
54743;SDS011;40639;53.170;6.728;2023-08-30T10:28:28;12.82;;;7.40;;
54743;SDS011;40639;53.170;6.728;2023-08-30T10:30:55;9.38;;;6.32;;
54743;SDS011;40639;53.170;6.728;2023-08-30T10:33:21;13.57;;;6.82;;
54743;SDS011;40639;53.170;6.728;2023-08-30T10:35:51;9.57;;;6.07;;
54743;SDS011;40639;53.170;6.728;2023-08-30T10:38:27;9.90;;;6.15;;
54743;SDS011;40639;53.170;6.728;2023-08-30T10:40:54;9.73;;;5.85;;
54743;SDS011;40639;53.170;6.728;2023-08-30T10:43:30;11.00;;;6.05;;
54743;SDS011;40639;53.170;6.728;2023-08-30T10:46:03;11.38;;;6.97;;
54743;SDS011;40639;53.170;6.728;2023-08-30T10:48:38;10.85;;;6.53;;
54743;SDS011;40639;53.170;6.728;2023-08-30T10:51:06;8.52;;;5.90;;
54743;SDS011;40639;53.170;6.728;2023-08-30T10:53:32;8.73;;;5.15;;
54743;SDS011;40639;53.170;6.728;2023-08-30T10:56:10;7.45;;;4.72;;
54743;SDS011;40639;53.170;6.728;2023-08-30T10:58:43;7.40;;;3.75;;
54743;SDS011;40639;53.170;6.728;2023-08-30T11:01:10;6.80;;;4.05;;
54743;SDS011;40639;53.170;6.728;2023-08-30T11:03:40;6.20;;;3.35;;
54743;SDS011;40639;53.170;6.728;2023-08-30T11:06:06;8.40;;;3.17;;
54743;SDS011;40639;53.170;6.728;2023-08-30T11:08:32;5.78;;;3.42;;
54743;SDS011;40639;53.170;6.728;2023-08-30T11:11:03;5.75;;;3.13;;
54743;SDS011;40639;53.170;6.728;2023-08-30T11:13:30;6.20;;;2.97;;
54743;SDS011;40639;53.170;6.728;2023-08-30T11:16:03;5.70;;;3.53;;
54743;SDS011;40639;53.170;6.728;2023-08-30T11:18:29;6.22;;;3.95;;
54743;SDS011;40639;53.170;6.728;2023-08-30T11:21:00;7.63;;;4.90;;
54743;SDS011;40639;53.170;6.728;2023-08-30T11:23:26;7.63;;;4.63;;
54743;SDS011;40639;53.170;6.728;2023-08-30T11:25:52;6.43;;;4.35;;
54743;SDS011;40639;53.170;6.728;2023-08-30T11:28:22;6.32;;;4.22;;
54743;SDS011;40639;53.170;6.728;2023-08-30T11:30:48;8.48;;;5.25;;
54743;SDS011;40639;53.170;6.728;2023-08-30T11:33:17;9.88;;;5.30;;
54743;SDS011;40639;53.170;6.728;2023-08-30T11:35:48;7.13;;;4.35;;
54743;SDS011;40639;53.170;6.728;2023-08-30T11:38:15;6.90;;;4.65;;
54743;SDS011;40639;53.170;6.728;2023-08-30T11:40:41;8.65;;;4.88;;
54743;SDS011;40639;53.170;6.728;2023-08-30T11:43:07;7.70;;;4.53;;
54743;SDS011;40639;53.170;6.728;2023-08-30T11:45:34;5.90;;;3.78;;
54743;SDS011;40639;53.170;6.728;2023-08-30T11:48:00;8.27;;;4.65;;
54743;SDS011;40639;53.170;6.728;2023-08-30T11:50:26;8.88;;;4.72;;
54743;SDS011;40639;53.170;6.728;2023-08-30T11:52:53;7.10;;;4.40;;
54743;SDS011;40639;53.170;6.728;2023-08-30T11:55:22;7.72;;;4.90;;
54743;SDS011;40639;53.170;6.728;2023-08-30T11:57:49;7.22;;;4.78;;
54743;SDS011;40639;53.170;6.728;2023-08-30T12:00:17;7.10;;;4.50;;
54743;SDS011;40639;53.170;6.728;2023-08-30T12:02:43;9.15;;;5.00;;
54743;SDS011;40639;53.170;6.728;2023-08-30T12:05:14;12.60;;;6.60;;
54743;SDS011;40639;53.170;6.728;2023-08-30T12:07:41;10.75;;;7.35;;
54743;SDS011;40639;53.170;6.728;2023-08-30T12:10:07;12.18;;;7.38;;
54743;SDS011;40639;53.170;6.728;2023-08-30T12:12:34;10.93;;;7.38;;
54743;SDS011;40639;53.170;6.728;2023-08-30T12:15:09;10.15;;;7.40;;
54743;SDS011;40639;53.170;6.728;2023-08-30T12:17:35;13.52;;;8.00;;
54743;SDS011;40639;53.170;6.728;2023-08-30T12:20:02;13.25;;;8.35;;
54743;SDS011;40639;53.170;6.728;2023-08-30T12:22:38;12.27;;;8.25;;
54743;SDS011;40639;53.170;6.728;2023-08-30T12:25:04;12.45;;;8.13;;
54743;SDS011;40639;53.170;6.728;2023-08-30T12:27:41;15.43;;;8.75;;
54743;SDS011;40639;53.170;6.728;2023-08-30T12:30:08;13.48;;;9.57;;
54743;SDS011;40639;53.170;6.728;2023-08-30T12:32:34;13.82;;;8.30;;
54743;SDS011;40639;53.170;6.728;2023-08-30T12:35:00;12.80;;;8.40;;
54743;SDS011;40639;53.170;6.728;2023-08-30T12:37:26;12.77;;;8.93;;
54743;SDS011;40639;53.170;6.728;2023-08-30T12:39:52;10.90;;;7.47;;
54743;SDS011;40639;53.170;6.728;2023-08-30T12:42:18;12.68;;;7.82;;
54743;SDS011;40639;53.170;6.728;2023-08-30T12:44:45;11.43;;;7.47;;
54743;SDS011;40639;53.170;6.728;2023-08-30T12:47:11;10.25;;;6.78;;
54743;SDS011;40639;53.170;6.728;2023-08-30T12:49:39;9.95;;;7.53;;
54743;SDS011;40639;53.170;6.728;2023-08-30T12:52:05;10.32;;;7.18;;
54743;SDS011;40639;53.170;6.728;2023-08-30T12:54:32;10.60;;;6.82;;
54743;SDS011;40639;53.170;6.728;2023-08-30T12:56:58;11.32;;;6.95;;
54743;SDS011;40639;53.170;6.728;2023-08-30T12:59:24;9.55;;;6.78;;
54743;SDS011;40639;53.170;6.728;2023-08-30T13:01:50;8.77;;;6.38;;
54743;SDS011;40639;53.170;6.728;2023-08-30T13:04:16;10.63;;;7.10;;
54743;SDS011;40639;53.170;6.728;2023-08-30T13:06:43;9.60;;;6.40;;
54743;SDS011;40639;53.170;6.728;2023-08-30T13:09:09;9.00;;;6.28;;
54743;SDS011;40639;53.170;6.728;2023-08-30T13:11:35;12.15;;;7.28;;
54743;SDS011;40639;53.170;6.728;2023-08-30T13:14:01;10.25;;;6.60;;
54743;SDS011;40639;53.170;6.728;2023-08-30T13:16:27;9.77;;;6.45;;
54743;SDS011;40639;53.170;6.728;2023-08-30T13:18:53;9.38;;;6.25;;
54743;SDS011;40639;53.170;6.728;2023-08-30T13:21:19;10.20;;;6.65;;
54743;SDS011;40639;53.170;6.728;2023-08-30T13:23:45;9.73;;;6.70;;
54743;SDS011;40639;53.170;6.728;2023-08-30T13:26:12;9.23;;;6.22;;
54743;SDS011;40639;53.170;6.728;2023-08-30T13:28:38;9.38;;;6.97;;
54743;SDS011;40639;53.170;6.728;2023-08-30T13:31:06;10.63;;;7.47;;
54743;SDS011;40639;53.170;6.728;2023-08-30T13:33:33;9.73;;;6.72;;
54743;SDS011;40639;53.170;6.728;2023-08-30T13:35:59;11.43;;;7.78;;
54743;SDS011;40639;53.170;6.728;2023-08-30T13:38:25;12.18;;;8.50;;
54743;SDS011;40639;53.170;6.728;2023-08-30T13:40:57;11.13;;;7.45;;
54743;SDS011;40639;53.170;6.728;2023-08-30T13:43:24;10.18;;;6.43;;
54743;SDS011;40639;53.170;6.728;2023-08-30T13:45:56;9.80;;;6.32;;
54743;SDS011;40639;53.170;6.728;2023-08-30T13:48:22;8.82;;;6.45;;
54743;SDS011;40639;53.170;6.728;2023-08-30T13:50:49;8.90;;;6.28;;
54743;SDS011;40639;53.170;6.728;2023-08-30T13:53:15;7.65;;;5.72;;
54743;SDS011;40639;53.170;6.728;2023-08-30T13:55:48;8.68;;;5.80;;
54743;SDS011;40639;53.170;6.728;2023-08-30T13:58:14;8.60;;;5.18;;
54743;SDS011;40639;53.170;6.728;2023-08-30T14:00:40;6.85;;;4.95;;
54743;SDS011;40639;53.170;6.728;2023-08-30T14:03:06;7.05;;;4.78;;
54743;SDS011;40639;53.170;6.728;2023-08-30T14:05:33;9.73;;;5.60;;
54743;SDS011;40639;53.170;6.728;2023-08-30T14:07:59;7.20;;;5.40;;
54743;SDS011;40639;53.170;6.728;2023-08-30T14:10:25;8.70;;;5.20;;
54743;SDS011;40639;53.170;6.728;2023-08-30T14:12:53;9.95;;;7.00;;
54743;SDS011;40639;53.170;6.728;2023-08-30T14:15:19;10.55;;;8.15;;
54743;SDS011;40639;53.170;6.728;2023-08-30T14:17:45;10.10;;;7.25;;
54743;SDS011;40639;53.170;6.728;2023-08-30T14:20:12;10.55;;;7.03;;
54743;SDS011;40639;53.170;6.728;2023-08-30T14:22:38;8.52;;;4.28;;
54743;SDS011;40639;53.170;6.728;2023-08-30T14:25:04;6.43;;;4.03;;
54743;SDS011;40639;53.170;6.728;2023-08-30T14:27:30;6.57;;;3.38;;
54743;SDS011;40639;53.170;6.728;2023-08-30T14:29:57;5.05;;;3.17;;
54743;SDS011;40639;53.170;6.728;2023-08-30T14:32:25;4.35;;;2.60;;
54743;SDS011;40639;53.170;6.728;2023-08-30T14:34:54;5.63;;;3.33;;
54743;SDS011;40639;53.170;6.728;2023-08-30T14:37:20;5.05;;;3.30;;
54743;SDS011;40639;53.170;6.728;2023-08-30T14:39:47;6.35;;;3.60;;